sensor_id;sensor_type;location;lat;lon;timestamp;temperature;humidity
12013;DHT22;6065;48.138;16.402;2024-01-07T00:00:49;4.40;99.90
12013;DHT22;6065;48.138;16.402;2024-01-07T00:03:15;4.40;99.90
12013;DHT22;6065;48.138;16.402;2024-01-07T00:05:44;4.40;99.90
12013;DHT22;6065;48.138;16.402;2024-01-07T00:08:12;4.40;99.90
12013;DHT22;6065;48.138;16.402;2024-01-07T00:10:39;4.40;99.90
12013;DHT22;6065;48.138;16.402;2024-01-07T00:13:06;4.40;99.90
12013;DHT22;6065;48.138;16.402;2024-01-07T00:15:33;4.40;99.90
12013;DHT22;6065;48.138;16.402;2024-01-07T00:18:00;4.40;99.90
12013;DHT22;6065;48.138;16.402;2024-01-07T00:20:27;4.40;99.90
12013;DHT22;6065;48.138;16.402;2024-01-07T00:22:55;4.30;99.90
12013;DHT22;6065;48.138;16.402;2024-01-07T00:25:22;4.20;99.90
12013;DHT22;6065;48.138;16.402;2024-01-07T00:27:49;4.20;99.90
12013;DHT22;6065;48.138;16.402;2024-01-07T00:30:18;4.20;99.90
12013;DHT22;6065;48.138;16.402;2024-01-07T00:32:44;4.20;99.90
12013;DHT22;6065;48.138;16.402;2024-01-07T00:35:11;4.20;99.90
12013;DHT22;6065;48.138;16.402;2024-01-07T00:37:38;4.30;99.90
12013;DHT22;6065;48.138;16.402;2024-01-07T00:40:07;4.20;99.90
12013;DHT22;6065;48.138;16.402;2024-01-07T00:42:34;4.20;99.90
12013;DHT22;6065;48.138;16.402;2024-01-07T00:45:01;4.20;99.90
12013;DHT22;6065;48.138;16.402;2024-01-07T00:47:28;4.20;99.90
12013;DHT22;6065;48.138;16.402;2024-01-07T00:49:55;4.10;99.90
12013;DHT22;6065;48.138;16.402;2024-01-07T00:52:21;4.10;99.90
12013;DHT22;6065;48.138;16.402;2024-01-07T00:54:48;4.10;99.90
12013;DHT22;6065;48.138;16.402;2024-01-07T00:57:16;4.10;99.90
12013;DHT22;6065;48.138;16.402;2024-01-07T00:59:43;4.10;99.90
12013;DHT22;6065;48.138;16.402;2024-01-07T01:02:10;4.00;99.90
12013;DHT22;6065;48.138;16.402;2024-01-07T01:04:38;4.00;99.90
12013;DHT22;6065;48.138;16.402;2024-01-07T01:07:04;3.90;99.90
12013;DHT22;6065;48.138;16.402;2024-01-07T01:09:33;3.90;99.90
12013;DHT22;6065;48.138;16.402;2024-01-07T01:11:59;3.90;99.90
12013;DHT22;6065;48.138;16.402;2024-01-07T01:14:28;3.90;99.90
12013;DHT22;6065;48.138;16.402;2024-01-07T01:16:54;3.90;99.90
12013;DHT22;6065;48.138;16.402;2024-01-07T01:19:21;3.90;99.90
12013;DHT22;6065;48.138;16.402;2024-01-07T01:21:48;3.80;99.90
12013;DHT22;6065;48.138;16.402;2024-01-07T01:24:15;3.90;99.90
12013;DHT22;6065;48.138;16.402;2024-01-07T01:26:42;3.90;99.90
12013;DHT22;6065;48.138;16.402;2024-01-07T01:29:08;3.90;99.90
12013;DHT22;6065;48.138;16.402;2024-01-07T01:31:37;3.90;99.90
12013;DHT22;6065;48.138;16.402;2024-01-07T01:34:03;3.80;99.90
12013;DHT22;6065;48.138;16.402;2024-01-07T01:36:30;3.80;99.90
12013;DHT22;6065;48.138;16.402;2024-01-07T01:38:57;3.80;99.90
12013;DHT22;6065;48.138;16.402;2024-01-07T01:41:24;3.80;99.90
12013;DHT22;6065;48.138;16.402;2024-01-07T01:43:51;3.80;99.90
12013;DHT22;6065;48.138;16.402;2024-01-07T01:46:17;3.80;99.90
12013;DHT22;6065;48.138;16.402;2024-01-07T01:48:46;3.70;99.90
12013;DHT22;6065;48.138;16.402;2024-01-07T01:51:13;3.70;99.90
12013;DHT22;6065;48.138;16.402;2024-01-07T01:53:39;3.70;99.90
12013;DHT22;6065;48.138;16.402;2024-01-07T01:56:06;3.70;99.90
12013;DHT22;6065;48.138;16.402;2024-01-07T01:58:33;3.70;99.90
12013;DHT22;6065;48.138;16.402;2024-01-07T02:01:00;3.70;99.90
12013;DHT22;6065;48.138;16.402;2024-01-07T02:03:28;3.70;99.90
12013;DHT22;6065;48.138;16.402;2024-01-07T02:05:56;3.70;99.90
12013;DHT22;6065;48.138;16.402;2024-01-07T02:08:24;3.70;99.90
12013;DHT22;6065;48.138;16.402;2024-01-07T02:10:51;3.60;99.90
12013;DHT22;6065;48.138;16.402;2024-01-07T02:13:18;3.60;99.90
12013;DHT22;6065;48.138;16.402;2024-01-07T02:15:45;3.70;99.90
12013;DHT22;6065;48.138;16.402;2024-01-07T02:18:12;3.70;99.90
12013;DHT22;6065;48.138;16.402;2024-01-07T02:20:38;3.60;99.90
12013;DHT22;6065;48.138;16.402;2024-01-07T02:23:07;3.60;99.90
12013;DHT22;6065;48.138;16.402;2024-01-07T02:25:38;3.60;99.90
12013;DHT22;6065;48.138;16.402;2024-01-07T02:28:05;3.60;99.90
12013;DHT22;6065;48.138;16.402;2024-01-07T02:30:32;3.60;99.90
12013;DHT22;6065;48.138;16.402;2024-01-07T02:33:00;3.60;99.90
12013;DHT22;6065;48.138;16.402;2024-01-07T02:35:27;3.60;99.90
12013;DHT22;6065;48.138;16.402;2024-01-07T02:37:54;3.50;99.90
12013;DHT22;6065;48.138;16.402;2024-01-07T02:40:21;3.50;99.90
12013;DHT22;6065;48.138;16.402;2024-01-07T02:42:49;3.60;99.90
12013;DHT22;6065;48.138;16.402;2024-01-07T02:45:16;3.60;99.90
12013;DHT22;6065;48.138;16.402;2024-01-07T02:47:43;3.60;99.90
12013;DHT22;6065;48.138;16.402;2024-01-07T02:50:09;3.60;99.90
12013;DHT22;6065;48.138;16.402;2024-01-07T02:52:36;3.50;99.90
12013;DHT22;6065;48.138;16.402;2024-01-07T02:55:03;3.50;99.90
12013;DHT22;6065;48.138;16.402;2024-01-07T02:57:30;3.50;99.90
12013;DHT22;6065;48.138;16.402;2024-01-07T02:59:58;3.50;99.90
12013;DHT22;6065;48.138;16.402;2024-01-07T03:02:25;3.50;99.90
12013;DHT22;6065;48.138;16.402;2024-01-07T03:04:52;3.40;99.90
12013;DHT22;6065;48.138;16.402;2024-01-07T03:07:19;3.40;99.90
12013;DHT22;6065;48.138;16.402;2024-01-07T03:09:45;3.40;99.90
12013;DHT22;6065;48.138;16.402;2024-01-07T03:12:12;3.30;99.90
12013;DHT22;6065;48.138;16.402;2024-01-07T03:14:40;3.30;99.90
12013;DHT22;6065;48.138;16.402;2024-01-07T03:17:08;3.30;99.90
12013;DHT22;6065;48.138;16.402;2024-01-07T03:19:35;3.30;99.90
12013;DHT22;6065;48.138;16.402;2024-01-07T03:22:02;3.30;99.90
12013;DHT22;6065;48.138;16.402;2024-01-07T03:24:29;3.30;99.90
12013;DHT22;6065;48.138;16.402;2024-01-07T03:26:56;3.30;99.90
12013;DHT22;6065;48.138;16.402;2024-01-07T03:29:23;3.30;99.90
12013;DHT22;6065;48.138;16.402;2024-01-07T03:31:49;3.40;99.90
12013;DHT22;6065;48.138;16.402;2024-01-07T03:34:19;3.40;99.90
12013;DHT22;6065;48.138;16.402;2024-01-07T03:36:46;3.40;99.90
12013;DHT22;6065;48.138;16.402;2024-01-07T03:39:13;3.40;99.90
12013;DHT22;6065;48.138;16.402;2024-01-07T03:41:40;3.30;99.90
12013;DHT22;6065;48.138;16.402;2024-01-07T03:44:07;3.30;99.90
12013;DHT22;6065;48.138;16.402;2024-01-07T03:46:34;3.30;99.90
12013;DHT22;6065;48.138;16.402;2024-01-07T03:49:01;3.30;99.90
12013;DHT22;6065;48.138;16.402;2024-01-07T03:51:29;3.30;99.90
12013;DHT22;6065;48.138;16.402;2024-01-07T03:53:56;3.30;99.90
12013;DHT22;6065;48.138;16.402;2024-01-07T03:56:23;3.30;99.90
12013;DHT22;6065;48.138;16.402;2024-01-07T03:58:49;3.30;99.90
12013;DHT22;6065;48.138;16.402;2024-01-07T04:01:16;3.20;99.90
12013;DHT22;6065;48.138;16.402;2024-01-07T04:03:43;3.20;99.90
12013;DHT22;6065;48.138;16.402;2024-01-07T04:06:10;3.20;99.90
12013;DHT22;6065;48.138;16.402;2024-01-07T04:08:38;3.20;99.90
12013;DHT22;6065;48.138;16.402;2024-01-07T04:11:05;3.20;99.90
12013;DHT22;6065;48.138;16.402;2024-01-07T04:13:32;3.10;99.90
12013;DHT22;6065;48.138;16.402;2024-01-07T04:15:59;3.10;99.90
12013;DHT22;6065;48.138;16.402;2024-01-07T04:18:25;3.10;99.90
12013;DHT22;6065;48.138;16.402;2024-01-07T04:20:52;3.00;99.90
12013;DHT22;6065;48.138;16.402;2024-01-07T04:23:19;3.00;99.90
12013;DHT22;6065;48.138;16.402;2024-01-07T04:25:49;3.00;99.90
12013;DHT22;6065;48.138;16.402;2024-01-07T04:28:16;3.10;99.90
12013;DHT22;6065;48.138;16.402;2024-01-07T04:30:43;3.10;99.90
12013;DHT22;6065;48.138;16.402;2024-01-07T04:33:09;3.10;99.90
12013;DHT22;6065;48.138;16.402;2024-01-07T04:35:36;3.10;99.90
12013;DHT22;6065;48.138;16.402;2024-01-07T04:38:03;3.00;99.90
12013;DHT22;6065;48.138;16.402;2024-01-07T04:40:30;3.00;99.90
12013;DHT22;6065;48.138;16.402;2024-01-07T04:42:58;3.00;99.90
12013;DHT22;6065;48.138;16.402;2024-01-07T04:45:25;3.00;99.90
12013;DHT22;6065;48.138;16.402;2024-01-07T04:47:52;3.00;99.90
12013;DHT22;6065;48.138;16.402;2024-01-07T04:50:19;3.00;99.90
12013;DHT22;6065;48.138;16.402;2024-01-07T04:52:46;3.00;99.90
12013;DHT22;6065;48.138;16.402;2024-01-07T04:55:12;3.00;99.90
12013;DHT22;6065;48.138;16.402;2024-01-07T04:57:39;3.00;99.90
12013;DHT22;6065;48.138;16.402;2024-01-07T05:00:08;3.00;99.90
12013;DHT22;6065;48.138;16.402;2024-01-07T05:02:35;3.00;99.90
12013;DHT22;6065;48.138;16.402;2024-01-07T05:05:03;3.00;99.90
12013;DHT22;6065;48.138;16.402;2024-01-07T05:07:30;2.90;99.90
12013;DHT22;6065;48.138;16.402;2024-01-07T05:09:57;3.00;99.90
12013;DHT22;6065;48.138;16.402;2024-01-07T05:12:23;3.00;99.90
12013;DHT22;6065;48.138;16.402;2024-01-07T05:14:51;3.00;99.90
12013;DHT22;6065;48.138;16.402;2024-01-07T05:17:19;3.00;99.90
12013;DHT22;6065;48.138;16.402;2024-01-07T05:19:46;3.00;99.90
12013;DHT22;6065;48.138;16.402;2024-01-07T05:22:12;2.90;99.90
12013;DHT22;6065;48.138;16.402;2024-01-07T05:24:39;2.90;99.90
12013;DHT22;6065;48.138;16.402;2024-01-07T05:27:06;3.00;99.90
12013;DHT22;6065;48.138;16.402;2024-01-07T05:29:33;3.00;99.90
12013;DHT22;6065;48.138;16.402;2024-01-07T05:32:00;3.00;99.90
12013;DHT22;6065;48.138;16.402;2024-01-07T05:34:29;3.00;99.90
12013;DHT22;6065;48.138;16.402;2024-01-07T05:36:56;2.90;99.90
12013;DHT22;6065;48.138;16.402;2024-01-07T05:39:23;2.90;99.90
12013;DHT22;6065;48.138;16.402;2024-01-07T05:41:50;2.90;99.90
12013;DHT22;6065;48.138;16.402;2024-01-07T05:44:16;2.90;99.90
12013;DHT22;6065;48.138;16.402;2024-01-07T05:46:43;2.80;99.90
12013;DHT22;6065;48.138;16.402;2024-01-07T05:49:10;2.80;99.90
12013;DHT22;6065;48.138;16.402;2024-01-07T05:51:39;2.80;99.90
12013;DHT22;6065;48.138;16.402;2024-01-07T05:54:06;2.80;99.90
12013;DHT22;6065;48.138;16.402;2024-01-07T05:56:37;2.80;99.90
12013;DHT22;6065;48.138;16.402;2024-01-07T05:59:04;2.80;99.90
12013;DHT22;6065;48.138;16.402;2024-01-07T06:01:31;2.80;99.90
12013;DHT22;6065;48.138;16.402;2024-01-07T06:03:58;2.80;99.90
12013;DHT22;6065;48.138;16.402;2024-01-07T06:06:25;2.80;99.90
12013;DHT22;6065;48.138;16.402;2024-01-07T06:08:53;2.80;99.90
12013;DHT22;6065;48.138;16.402;2024-01-07T06:11:20;2.80;99.90
12013;DHT22;6065;48.138;16.402;2024-01-07T06:13:47;2.80;99.90
12013;DHT22;6065;48.138;16.402;2024-01-07T06:16:14;2.80;99.90
12013;DHT22;6065;48.138;16.402;2024-01-07T06:18:40;2.80;99.90
12013;DHT22;6065;48.138;16.402;2024-01-07T06:21:07;2.70;99.90
12013;DHT22;6065;48.138;16.402;2024-01-07T06:23:34;2.70;99.90
12013;DHT22;6065;48.138;16.402;2024-01-07T06:26:04;2.70;99.90
12013;DHT22;6065;48.138;16.402;2024-01-07T06:28:31;2.70;99.90
12013;DHT22;6065;48.138;16.402;2024-01-07T06:30:58;2.70;99.90
12013;DHT22;6065;48.138;16.402;2024-01-07T06:33:24;2.70;99.90
12013;DHT22;6065;48.138;16.402;2024-01-07T06:35:51;2.60;99.90
12013;DHT22;6065;48.138;16.402;2024-01-07T06:38:18;2.50;99.90
12013;DHT22;6065;48.138;16.402;2024-01-07T06:40:45;2.50;99.90
12013;DHT22;6065;48.138;16.402;2024-01-07T06:43:13;2.50;99.90
12013;DHT22;6065;48.138;16.402;2024-01-07T06:45:40;2.50;99.90
12013;DHT22;6065;48.138;16.402;2024-01-07T06:48:07;2.50;99.90
12013;DHT22;6065;48.138;16.402;2024-01-07T06:50:34;2.50;99.90
12013;DHT22;6065;48.138;16.402;2024-01-07T06:53:01;2.40;99.90
12013;DHT22;6065;48.138;16.402;2024-01-07T06:55:28;2.40;99.90
12013;DHT22;6065;48.138;16.402;2024-01-07T06:57:54;2.40;99.90
12013;DHT22;6065;48.138;16.402;2024-01-07T07:00:23;2.30;99.90
12013;DHT22;6065;48.138;16.402;2024-01-07T07:02:50;2.40;99.90
12013;DHT22;6065;48.138;16.402;2024-01-07T07:05:16;2.30;99.90
12013;DHT22;6065;48.138;16.402;2024-01-07T07:07:43;2.30;99.90
12013;DHT22;6065;48.138;16.402;2024-01-07T07:10:10;2.30;99.90
12013;DHT22;6065;48.138;16.402;2024-01-07T07:12:37;2.30;99.90
12013;DHT22;6065;48.138;16.402;2024-01-07T07:15:04;2.30;99.90
12013;DHT22;6065;48.138;16.402;2024-01-07T07:17:33;2.20;99.90
12013;DHT22;6065;48.138;16.402;2024-01-07T07:19:59;2.20;99.90
12013;DHT22;6065;48.138;16.402;2024-01-07T07:22:26;2.30;99.90
12013;DHT22;6065;48.138;16.402;2024-01-07T07:24:53;2.30;99.90
12013;DHT22;6065;48.138;16.402;2024-01-07T07:27:21;2.20;99.90
12013;DHT22;6065;48.138;16.402;2024-01-07T07:29:49;2.20;99.90
12013;DHT22;6065;48.138;16.402;2024-01-07T07:32:16;2.10;99.90
12013;DHT22;6065;48.138;16.402;2024-01-07T07:34:44;2.10;99.90
12013;DHT22;6065;48.138;16.402;2024-01-07T07:37:12;2.10;99.90
12013;DHT22;6065;48.138;16.402;2024-01-07T07:39:39;2.00;99.90
12013;DHT22;6065;48.138;16.402;2024-01-07T07:42:06;2.10;99.90
12013;DHT22;6065;48.138;16.402;2024-01-07T07:44:33;2.00;99.90
12013;DHT22;6065;48.138;16.402;2024-01-07T07:46:59;2.00;99.90
12013;DHT22;6065;48.138;16.402;2024-01-07T07:49:26;2.10;99.90
12013;DHT22;6065;48.138;16.402;2024-01-07T07:51:55;2.00;99.90
12013;DHT22;6065;48.138;16.402;2024-01-07T07:54:21;2.00;99.90
12013;DHT22;6065;48.138;16.402;2024-01-07T07:56:48;2.00;99.90
12013;DHT22;6065;48.138;16.402;2024-01-07T07:59:14;2.00;99.90
12013;DHT22;6065;48.138;16.402;2024-01-07T08:01:41;2.00;99.90
12013;DHT22;6065;48.138;16.402;2024-01-07T08:04:08;2.00;99.90
12013;DHT22;6065;48.138;16.402;2024-01-07T08:06:35;2.00;99.90
12013;DHT22;6065;48.138;16.402;2024-01-07T08:09:03;2.00;99.90
12013;DHT22;6065;48.138;16.402;2024-01-07T08:11:31;2.00;99.90
12013;DHT22;6065;48.138;16.402;2024-01-07T08:13:57;2.10;99.90
12013;DHT22;6065;48.138;16.402;2024-01-07T08:16:24;2.10;99.90
12013;DHT22;6065;48.138;16.402;2024-01-07T08:18:51;2.10;99.90
12013;DHT22;6065;48.138;16.402;2024-01-07T08:21:18;2.00;99.90
12013;DHT22;6065;48.138;16.402;2024-01-07T08:23:45;2.00;99.90
12013;DHT22;6065;48.138;16.402;2024-01-07T08:26:14;2.00;99.90
12013;DHT22;6065;48.138;16.402;2024-01-07T08:28:44;2.00;99.90
12013;DHT22;6065;48.138;16.402;2024-01-07T08:31:11;2.00;99.90
12013;DHT22;6065;48.138;16.402;2024-01-07T08:33:37;1.90;99.90
12013;DHT22;6065;48.138;16.402;2024-01-07T08:36:05;1.90;99.90
12013;DHT22;6065;48.138;16.402;2024-01-07T08:38:34;1.90;99.90
12013;DHT22;6065;48.138;16.402;2024-01-07T08:41:01;1.90;99.90
12013;DHT22;6065;48.138;16.402;2024-01-07T08:43:29;1.90;99.90
12013;DHT22;6065;48.138;16.402;2024-01-07T08:45:56;1.90;99.90
12013;DHT22;6065;48.138;16.402;2024-01-07T08:48:22;1.90;99.90
12013;DHT22;6065;48.138;16.402;2024-01-07T08:50:49;1.90;99.90
12013;DHT22;6065;48.138;16.402;2024-01-07T08:53:17;1.90;99.90
12013;DHT22;6065;48.138;16.402;2024-01-07T08:55:44;1.80;99.90
12013;DHT22;6065;48.138;16.402;2024-01-07T08:58:10;1.80;99.90
12013;DHT22;6065;48.138;16.402;2024-01-07T09:00:39;1.90;99.90
12013;DHT22;6065;48.138;16.402;2024-01-07T09:03:05;1.80;99.90
12013;DHT22;6065;48.138;16.402;2024-01-07T09:05:33;1.80;99.90
12013;DHT22;6065;48.138;16.402;2024-01-07T09:08:00;1.80;99.90
12013;DHT22;6065;48.138;16.402;2024-01-07T09:10:27;1.80;99.90
12013;DHT22;6065;48.138;16.402;2024-01-07T09:12:54;1.80;99.90
12013;DHT22;6065;48.138;16.402;2024-01-07T09:15:21;1.70;99.90
12013;DHT22;6065;48.138;16.402;2024-01-07T09:17:49;1.80;99.90
12013;DHT22;6065;48.138;16.402;2024-01-07T09:20:16;1.80;99.90
12013;DHT22;6065;48.138;16.402;2024-01-07T09:22:43;1.80;99.90
12013;DHT22;6065;48.138;16.402;2024-01-07T09:25:10;1.80;99.90
12013;DHT22;6065;48.138;16.402;2024-01-07T09:27:37;1.80;99.90
12013;DHT22;6065;48.138;16.402;2024-01-07T09:30:04;1.80;99.90
12013;DHT22;6065;48.138;16.402;2024-01-07T09:32:31;1.80;99.90
12013;DHT22;6065;48.138;16.402;2024-01-07T09:34:59;1.90;99.90
12013;DHT22;6065;48.138;16.402;2024-01-07T09:37:26;1.80;99.90
12013;DHT22;6065;48.138;16.402;2024-01-07T09:39:53;1.90;99.90
12013;DHT22;6065;48.138;16.402;2024-01-07T09:42:20;1.90;99.90
12013;DHT22;6065;48.138;16.402;2024-01-07T09:44:47;1.90;99.90
12013;DHT22;6065;48.138;16.402;2024-01-07T09:47:14;1.90;99.90
12013;DHT22;6065;48.138;16.402;2024-01-07T09:49:42;1.90;99.90
12013;DHT22;6065;48.138;16.402;2024-01-07T09:52:10;1.80;99.90
12013;DHT22;6065;48.138;16.402;2024-01-07T09:54:38;1.80;99.90
12013;DHT22;6065;48.138;16.402;2024-01-07T09:57:05;1.80;99.90
12013;DHT22;6065;48.138;16.402;2024-01-07T09:59:33;1.80;99.90
12013;DHT22;6065;48.138;16.402;2024-01-07T10:01:59;1.80;99.90
12013;DHT22;6065;48.138;16.402;2024-01-07T10:04:26;1.80;99.90
12013;DHT22;6065;48.138;16.402;2024-01-07T10:06:54;1.70;99.90
12013;DHT22;6065;48.138;16.402;2024-01-07T10:09:23;1.70;99.90
12013;DHT22;6065;48.138;16.402;2024-01-07T10:11:51;1.70;99.90
12013;DHT22;6065;48.138;16.402;2024-01-07T10:14:18;1.70;99.90
12013;DHT22;6065;48.138;16.402;2024-01-07T10:16:47;1.70;99.90
12013;DHT22;6065;48.138;16.402;2024-01-07T10:19:17;1.70;99.90
12013;DHT22;6065;48.138;16.402;2024-01-07T10:21:44;1.70;99.90
12013;DHT22;6065;48.138;16.402;2024-01-07T10:24:12;1.70;99.90
12013;DHT22;6065;48.138;16.402;2024-01-07T10:26:42;1.70;99.90
12013;DHT22;6065;48.138;16.402;2024-01-07T10:29:09;1.80;99.90
12013;DHT22;6065;48.138;16.402;2024-01-07T10:31:37;1.70;99.90
12013;DHT22;6065;48.138;16.402;2024-01-07T10:34:06;1.80;99.90
12013;DHT22;6065;48.138;16.402;2024-01-07T10:36:33;1.80;99.90
12013;DHT22;6065;48.138;16.402;2024-01-07T10:39:00;1.80;99.90
12013;DHT22;6065;48.138;16.402;2024-01-07T10:41:27;1.80;99.90
12013;DHT22;6065;48.138;16.402;2024-01-07T10:43:57;1.80;99.90
12013;DHT22;6065;48.138;16.402;2024-01-07T10:46:25;1.70;99.90
12013;DHT22;6065;48.138;16.402;2024-01-07T10:48:54;1.70;99.90
12013;DHT22;6065;48.138;16.402;2024-01-07T10:51:21;1.70;99.90
12013;DHT22;6065;48.138;16.402;2024-01-07T10:53:51;1.70;99.90
12013;DHT22;6065;48.138;16.402;2024-01-07T10:56:18;1.60;99.90
12013;DHT22;6065;48.138;16.402;2024-01-07T10:58:47;1.70;99.90
12013;DHT22;6065;48.138;16.402;2024-01-07T11:01:17;1.60;99.90
12013;DHT22;6065;48.138;16.402;2024-01-07T11:03:45;1.60;99.90
12013;DHT22;6065;48.138;16.402;2024-01-07T11:06:15;1.60;99.90
12013;DHT22;6065;48.138;16.402;2024-01-07T11:08:46;1.60;99.90
12013;DHT22;6065;48.138;16.402;2024-01-07T11:11:18;1.60;99.90
12013;DHT22;6065;48.138;16.402;2024-01-07T11:13:46;1.60;99.90
12013;DHT22;6065;48.138;16.402;2024-01-07T11:16:13;1.60;99.90
12013;DHT22;6065;48.138;16.402;2024-01-07T11:18:45;1.60;99.90
12013;DHT22;6065;48.138;16.402;2024-01-07T11:21:20;1.60;99.90
12013;DHT22;6065;48.138;16.402;2024-01-07T11:23:46;1.60;99.90
12013;DHT22;6065;48.138;16.402;2024-01-07T11:26:13;1.60;99.90
12013;DHT22;6065;48.138;16.402;2024-01-07T11:28:47;1.60;99.90
12013;DHT22;6065;48.138;16.402;2024-01-07T11:31:14;1.60;99.90
12013;DHT22;6065;48.138;16.402;2024-01-07T11:33:43;1.60;99.90
12013;DHT22;6065;48.138;16.402;2024-01-07T11:36:11;1.60;99.90
12013;DHT22;6065;48.138;16.402;2024-01-07T11:38:38;1.60;99.90
12013;DHT22;6065;48.138;16.402;2024-01-07T11:41:05;1.60;99.90
12013;DHT22;6065;48.138;16.402;2024-01-07T11:43:32;1.60;99.90
12013;DHT22;6065;48.138;16.402;2024-01-07T11:45:59;1.50;99.90
12013;DHT22;6065;48.138;16.402;2024-01-07T11:48:26;1.60;99.90
12013;DHT22;6065;48.138;16.402;2024-01-07T11:50:55;1.60;99.90
12013;DHT22;6065;48.138;16.402;2024-01-07T11:53:22;1.50;99.90
12013;DHT22;6065;48.138;16.402;2024-01-07T11:55:48;1.60;99.90
12013;DHT22;6065;48.138;16.402;2024-01-07T11:58:15;1.60;99.90
12013;DHT22;6065;48.138;16.402;2024-01-07T12:00:42;1.60;99.90
12013;DHT22;6065;48.138;16.402;2024-01-07T12:03:09;1.60;99.90
12013;DHT22;6065;48.138;16.402;2024-01-07T12:05:37;1.60;99.90
12013;DHT22;6065;48.138;16.402;2024-01-07T12:08:05;1.70;99.90
12013;DHT22;6065;48.138;16.402;2024-01-07T12:10:32;1.70;99.90
12013;DHT22;6065;48.138;16.402;2024-01-07T12:12:59;1.60;99.90
12013;DHT22;6065;48.138;16.402;2024-01-07T12:15:26;1.60;99.90
12013;DHT22;6065;48.138;16.402;2024-01-07T12:17:57;1.60;99.90
12013;DHT22;6065;48.138;16.402;2024-01-07T12:20:25;1.70;99.90
12013;DHT22;6065;48.138;16.402;2024-01-07T12:22:52;1.70;99.90
12013;DHT22;6065;48.138;16.402;2024-01-07T12:25:22;1.70;99.90
12013;DHT22;6065;48.138;16.402;2024-01-07T12:27:50;1.60;99.90
12013;DHT22;6065;48.138;16.402;2024-01-07T12:30:18;1.60;99.90
12013;DHT22;6065;48.138;16.402;2024-01-07T12:32:45;1.60;99.90
12013;DHT22;6065;48.138;16.402;2024-01-07T12:35:12;1.60;99.90
12013;DHT22;6065;48.138;16.402;2024-01-07T12:37:39;1.60;99.90
12013;DHT22;6065;48.138;16.402;2024-01-07T12:40:06;1.60;99.90
12013;DHT22;6065;48.138;16.402;2024-01-07T12:42:37;1.60;99.90
12013;DHT22;6065;48.138;16.402;2024-01-07T12:45:05;1.60;99.90
12013;DHT22;6065;48.138;16.402;2024-01-07T12:47:32;1.60;99.90
12013;DHT22;6065;48.138;16.402;2024-01-07T12:50:00;1.60;99.90
12013;DHT22;6065;48.138;16.402;2024-01-07T12:52:27;1.60;99.90
12013;DHT22;6065;48.138;16.402;2024-01-07T12:54:54;1.60;99.90
12013;DHT22;6065;48.138;16.402;2024-01-07T12:57:21;1.60;99.90
12013;DHT22;6065;48.138;16.402;2024-01-07T12:59:49;1.60;99.90
12013;DHT22;6065;48.138;16.402;2024-01-07T13:02:16;1.60;99.90
12013;DHT22;6065;48.138;16.402;2024-01-07T13:04:42;1.60;99.90
12013;DHT22;6065;48.138;16.402;2024-01-07T13:07:09;1.60;99.90
12013;DHT22;6065;48.138;16.402;2024-01-07T13:09:36;1.60;99.90
12013;DHT22;6065;48.138;16.402;2024-01-07T13:12:02;1.60;99.90
12013;DHT22;6065;48.138;16.402;2024-01-07T13:14:29;1.60;99.90
12013;DHT22;6065;48.138;16.402;2024-01-07T13:16:58;1.60;99.90
12013;DHT22;6065;48.138;16.402;2024-01-07T13:19:25;1.60;99.90
12013;DHT22;6065;48.138;16.402;2024-01-07T13:21:52;1.60;99.90
12013;DHT22;6065;48.138;16.402;2024-01-07T13:24:20;1.60;99.90
12013;DHT22;6065;48.138;16.402;2024-01-07T13:26:48;1.60;99.90
12013;DHT22;6065;48.138;16.402;2024-01-07T13:29:14;1.50;99.90
12013;DHT22;6065;48.138;16.402;2024-01-07T13:31:41;1.50;99.90
12013;DHT22;6065;48.138;16.402;2024-01-07T13:34:09;1.50;99.90
12013;DHT22;6065;48.138;16.402;2024-01-07T13:36:39;1.50;99.90
12013;DHT22;6065;48.138;16.402;2024-01-07T13:39:06;1.50;99.90
12013;DHT22;6065;48.138;16.402;2024-01-07T13:41:33;1.40;99.90
12013;DHT22;6065;48.138;16.402;2024-01-07T13:44:00;1.50;99.90
12013;DHT22;6065;48.138;16.402;2024-01-07T13:46:28;1.40;99.90
12013;DHT22;6065;48.138;16.402;2024-01-07T13:48:55;1.40;99.90
12013;DHT22;6065;48.138;16.402;2024-01-07T13:51:23;1.40;99.90
12013;DHT22;6065;48.138;16.402;2024-01-07T13:53:51;1.40;99.90
12013;DHT22;6065;48.138;16.402;2024-01-07T13:56:18;1.40;99.90
12013;DHT22;6065;48.138;16.402;2024-01-07T13:58:45;1.40;99.90
12013;DHT22;6065;48.138;16.402;2024-01-07T14:01:12;1.50;99.90
12013;DHT22;6065;48.138;16.402;2024-01-07T14:03:39;1.40;99.90
12013;DHT22;6065;48.138;16.402;2024-01-07T14:06:07;1.40;99.90
12013;DHT22;6065;48.138;16.402;2024-01-07T14:08:35;1.40;99.90
12013;DHT22;6065;48.138;16.402;2024-01-07T14:11:02;1.40;99.90
12013;DHT22;6065;48.138;16.402;2024-01-07T14:13:29;1.40;99.90
12013;DHT22;6065;48.138;16.402;2024-01-07T14:15:56;1.40;99.90
12013;DHT22;6065;48.138;16.402;2024-01-07T14:18:23;1.40;99.90
12013;DHT22;6065;48.138;16.402;2024-01-07T14:20:50;1.40;99.90
12013;DHT22;6065;48.138;16.402;2024-01-07T14:23:17;1.30;99.90
12013;DHT22;6065;48.138;16.402;2024-01-07T14:25:45;1.30;99.90
12013;DHT22;6065;48.138;16.402;2024-01-07T14:28:12;1.30;99.90
12013;DHT22;6065;48.138;16.402;2024-01-07T14:30:39;1.30;99.90
12013;DHT22;6065;48.138;16.402;2024-01-07T14:33:05;1.30;99.90
12013;DHT22;6065;48.138;16.402;2024-01-07T14:35:32;1.30;99.90
12013;DHT22;6065;48.138;16.402;2024-01-07T14:37:59;1.30;99.90
12013;DHT22;6065;48.138;16.402;2024-01-07T14:40:27;1.30;99.90
12013;DHT22;6065;48.138;16.402;2024-01-07T14:42:57;1.30;99.90
12013;DHT22;6065;48.138;16.402;2024-01-07T14:45:24;1.30;99.90
12013;DHT22;6065;48.138;16.402;2024-01-07T14:47:52;1.30;99.90
12013;DHT22;6065;48.138;16.402;2024-01-07T14:50:20;1.30;99.90
12013;DHT22;6065;48.138;16.402;2024-01-07T14:52:47;1.30;99.90
12013;DHT22;6065;48.138;16.402;2024-01-07T14:55:14;1.30;99.90
12013;DHT22;6065;48.138;16.402;2024-01-07T14:57:42;1.30;99.90
12013;DHT22;6065;48.138;16.402;2024-01-07T15:00:14;1.30;99.90
12013;DHT22;6065;48.138;16.402;2024-01-07T15:02:41;1.30;99.90
12013;DHT22;6065;48.138;16.402;2024-01-07T15:05:09;1.20;99.90
12013;DHT22;6065;48.138;16.402;2024-01-07T15:07:41;1.20;99.90
12013;DHT22;6065;48.138;16.402;2024-01-07T15:10:14;1.20;99.90
12013;DHT22;6065;48.138;16.402;2024-01-07T15:12:42;1.30;99.90
12013;DHT22;6065;48.138;16.402;2024-01-07T15:15:09;1.30;99.90
12013;DHT22;6065;48.138;16.402;2024-01-07T15:17:39;1.30;99.90
12013;DHT22;6065;48.138;16.402;2024-01-07T15:20:07;1.20;99.90
12013;DHT22;6065;48.138;16.402;2024-01-07T15:22:34;1.20;99.90
12013;DHT22;6065;48.138;16.402;2024-01-07T15:25:01;1.30;99.90
12013;DHT22;6065;48.138;16.402;2024-01-07T15:27:29;1.20;99.90
12013;DHT22;6065;48.138;16.402;2024-01-07T15:29:59;1.30;99.90
12013;DHT22;6065;48.138;16.402;2024-01-07T15:32:26;1.30;99.90
12013;DHT22;6065;48.138;16.402;2024-01-07T15:34:56;1.30;99.90
12013;DHT22;6065;48.138;16.402;2024-01-07T15:37:23;1.20;99.90
12013;DHT22;6065;48.138;16.402;2024-01-07T15:39:51;1.20;99.90
12013;DHT22;6065;48.138;16.402;2024-01-07T15:42:19;1.20;99.90
12013;DHT22;6065;48.138;16.402;2024-01-07T15:44:47;1.20;99.90